sensor_id;sensor_type;location;lat;lon;timestamp;temperature;humidity
2729;DHT22;1372;47.956;7.830;2023-11-19T00:01:09;12.10;99.90
2729;DHT22;1372;47.956;7.830;2023-11-19T00:03:38;12.10;99.90
2729;DHT22;1372;47.956;7.830;2023-11-19T00:06:07;12.10;99.90
2729;DHT22;1372;47.956;7.830;2023-11-19T00:08:38;12.10;99.90
2729;DHT22;1372;47.956;7.830;2023-11-19T00:11:08;12.10;99.90
2729;DHT22;1372;47.956;7.830;2023-11-19T00:13:42;12.20;99.90
2729;DHT22;1372;47.956;7.830;2023-11-19T00:16:11;12.20;99.90
2729;DHT22;1372;47.956;7.830;2023-11-19T00:18:40;12.20;99.90
2729;DHT22;1372;47.956;7.830;2023-11-19T00:21:09;12.30;99.90
2729;DHT22;1372;47.956;7.830;2023-11-19T00:23:38;12.30;99.90
2729;DHT22;1372;47.956;7.830;2023-11-19T00:26:07;12.30;99.90
2729;DHT22;1372;47.956;7.830;2023-11-19T00:28:38;12.30;99.90
2729;DHT22;1372;47.956;7.830;2023-11-19T00:31:07;12.30;99.90
2729;DHT22;1372;47.956;7.830;2023-11-19T00:33:36;12.30;99.90
2729;DHT22;1372;47.956;7.830;2023-11-19T00:36:18;12.40;99.90
2729;DHT22;1372;47.956;7.830;2023-11-19T00:38:46;12.40;99.90
2729;DHT22;1372;47.956;7.830;2023-11-19T00:41:17;12.40;99.90
2729;DHT22;1372;47.956;7.830;2023-11-19T00:43:46;12.40;99.90
2729;DHT22;1372;47.956;7.830;2023-11-19T00:46:16;12.40;99.90
2729;DHT22;1372;47.956;7.830;2023-11-19T00:48:45;12.30;99.90
2729;DHT22;1372;47.956;7.830;2023-11-19T00:51:14;12.30;99.90
2729;DHT22;1372;47.956;7.830;2023-11-19T00:53:43;12.40;99.90
2729;DHT22;1372;47.956;7.830;2023-11-19T00:56:13;12.30;99.90
2729;DHT22;1372;47.956;7.830;2023-11-19T00:58:45;12.30;99.90
2729;DHT22;1372;47.956;7.830;2023-11-19T01:01:15;12.40;99.90
2729;DHT22;1372;47.956;7.830;2023-11-19T01:03:44;12.50;99.90
2729;DHT22;1372;47.956;7.830;2023-11-19T01:06:13;12.50;99.90
2729;DHT22;1372;47.956;7.830;2023-11-19T01:08:42;12.50;99.90
2729;DHT22;1372;47.956;7.830;2023-11-19T01:11:19;12.50;99.90
2729;DHT22;1372;47.956;7.830;2023-11-19T01:13:51;12.50;99.90
2729;DHT22;1372;47.956;7.830;2023-11-19T01:16:20;12.50;99.90
2729;DHT22;1372;47.956;7.830;2023-11-19T01:18:49;12.50;99.90
2729;DHT22;1372;47.956;7.830;2023-11-19T01:21:22;12.60;99.90
2729;DHT22;1372;47.956;7.830;2023-11-19T01:23:53;12.60;99.90
2729;DHT22;1372;47.956;7.830;2023-11-19T01:26:21;12.60;99.90
2729;DHT22;1372;47.956;7.830;2023-11-19T01:28:53;12.50;99.90
2729;DHT22;1372;47.956;7.830;2023-11-19T01:31:24;12.50;99.90
2729;DHT22;1372;47.956;7.830;2023-11-19T01:33:53;12.50;99.90
2729;DHT22;1372;47.956;7.830;2023-11-19T01:36:24;12.60;99.90
2729;DHT22;1372;47.956;7.830;2023-11-19T01:38:55;12.60;99.90
2729;DHT22;1372;47.956;7.830;2023-11-19T01:41:24;12.80;99.90
2729;DHT22;1372;47.956;7.830;2023-11-19T01:43:57;12.80;99.90
2729;DHT22;1372;47.956;7.830;2023-11-19T01:46:26;12.80;99.90
2729;DHT22;1372;47.956;7.830;2023-11-19T01:48:57;12.70;99.90
2729;DHT22;1372;47.956;7.830;2023-11-19T01:51:26;12.70;99.90
2729;DHT22;1372;47.956;7.830;2023-11-19T01:53:57;12.80;99.90
2729;DHT22;1372;47.956;7.830;2023-11-19T01:56:27;12.80;99.90
2729;DHT22;1372;47.956;7.830;2023-11-19T01:58:59;12.90;99.90
2729;DHT22;1372;47.956;7.830;2023-11-19T02:01:29;12.70;99.90
2729;DHT22;1372;47.956;7.830;2023-11-19T02:04:00;12.70;99.90
2729;DHT22;1372;47.956;7.830;2023-11-19T02:06:30;12.60;99.90
2729;DHT22;1372;47.956;7.830;2023-11-19T02:09:00;12.60;99.90
2729;DHT22;1372;47.956;7.830;2023-11-19T02:11:35;12.50;99.90
2729;DHT22;1372;47.956;7.830;2023-11-19T02:14:07;12.50;99.90
2729;DHT22;1372;47.956;7.830;2023-11-19T02:16:38;12.40;99.90
2729;DHT22;1372;47.956;7.830;2023-11-19T02:19:10;12.40;99.90
2729;DHT22;1372;47.956;7.830;2023-11-19T02:21:39;12.30;99.90
2729;DHT22;1372;47.956;7.830;2023-11-19T02:24:12;12.20;99.90
2729;DHT22;1372;47.956;7.830;2023-11-19T02:26:47;12.10;99.90
2729;DHT22;1372;47.956;7.830;2023-11-19T02:29:23;12.10;99.90
2729;DHT22;1372;47.956;7.830;2023-11-19T02:31:52;12.00;99.90
2729;DHT22;1372;47.956;7.830;2023-11-19T02:34:22;11.80;99.90
2729;DHT22;1372;47.956;7.830;2023-11-19T02:36:51;11.80;99.90
2729;DHT22;1372;47.956;7.830;2023-11-19T02:39:21;11.80;99.90
2729;DHT22;1372;47.956;7.830;2023-11-19T02:41:49;11.70;99.90
2729;DHT22;1372;47.956;7.830;2023-11-19T02:44:20;11.70;99.90
2729;DHT22;1372;47.956;7.830;2023-11-19T02:46:50;11.70;99.90
2729;DHT22;1372;47.956;7.830;2023-11-19T02:49:19;11.70;99.90
2729;DHT22;1372;47.956;7.830;2023-11-19T02:51:50;11.70;99.90
2729;DHT22;1372;47.956;7.830;2023-11-19T02:54:19;11.60;99.90
2729;DHT22;1372;47.956;7.830;2023-11-19T02:56:48;11.60;99.90
2729;DHT22;1372;47.956;7.830;2023-11-19T02:59:22;11.60;99.90
2729;DHT22;1372;47.956;7.830;2023-11-19T03:01:57;11.60;99.90
2729;DHT22;1372;47.956;7.830;2023-11-19T03:04:27;11.60;99.90
2729;DHT22;1372;47.956;7.830;2023-11-19T03:06:55;11.60;99.90
2729;DHT22;1372;47.956;7.830;2023-11-19T03:09:25;11.70;99.90
2729;DHT22;1372;47.956;7.830;2023-11-19T03:11:54;11.70;99.90
2729;DHT22;1372;47.956;7.830;2023-11-19T03:14:23;11.70;99.90
2729;DHT22;1372;47.956;7.830;2023-11-19T03:16:51;11.70;99.90
2729;DHT22;1372;47.956;7.830;2023-11-19T03:19:22;11.70;99.90
2729;DHT22;1372;47.956;7.830;2023-11-19T03:21:52;11.80;99.90
2729;DHT22;1372;47.956;7.830;2023-11-19T03:24:21;11.80;99.90
2729;DHT22;1372;47.956;7.830;2023-11-19T03:26:50;11.80;99.90
2729;DHT22;1372;47.956;7.830;2023-11-19T03:29:19;11.80;99.90
2729;DHT22;1372;47.956;7.830;2023-11-19T03:31:48;11.90;99.90
2729;DHT22;1372;47.956;7.830;2023-11-19T03:34:19;11.80;99.90
2729;DHT22;1372;47.956;7.830;2023-11-19T03:36:50;11.90;99.90
2729;DHT22;1372;47.956;7.830;2023-11-19T03:39:19;11.90;99.90
2729;DHT22;1372;47.956;7.830;2023-11-19T03:41:49;11.90;99.90
2729;DHT22;1372;47.956;7.830;2023-11-19T03:44:18;11.90;99.90
2729;DHT22;1372;47.956;7.830;2023-11-19T03:46:49;11.90;99.90
2729;DHT22;1372;47.956;7.830;2023-11-19T03:49:18;11.90;99.90
2729;DHT22;1372;47.956;7.830;2023-11-19T03:51:47;11.90;99.90
2729;DHT22;1372;47.956;7.830;2023-11-19T03:54:17;11.90;99.90
2729;DHT22;1372;47.956;7.830;2023-11-19T03:56:47;12.00;99.90
2729;DHT22;1372;47.956;7.830;2023-11-19T03:59:16;12.00;99.90
2729;DHT22;1372;47.956;7.830;2023-11-19T04:01:47;12.00;99.90
2729;DHT22;1372;47.956;7.830;2023-11-19T04:04:16;12.00;99.90
2729;DHT22;1372;47.956;7.830;2023-11-19T04:06:46;12.10;99.90
2729;DHT22;1372;47.956;7.830;2023-11-19T04:09:19;12.10;99.90
2729;DHT22;1372;47.956;7.830;2023-11-19T04:11:48;12.10;99.90
2729;DHT22;1372;47.956;7.830;2023-11-19T04:14:17;12.10;99.90
2729;DHT22;1372;47.956;7.830;2023-11-19T04:16:46;12.10;99.90
2729;DHT22;1372;47.956;7.830;2023-11-19T04:19:15;12.20;99.90
2729;DHT22;1372;47.956;7.830;2023-11-19T04:21:46;12.20;99.90
2729;DHT22;1372;47.956;7.830;2023-11-19T04:24:15;12.10;99.90
2729;DHT22;1372;47.956;7.830;2023-11-19T04:26:45;12.20;99.90
2729;DHT22;1372;47.956;7.830;2023-11-19T04:29:16;12.20;99.90
2729;DHT22;1372;47.956;7.830;2023-11-19T04:31:45;12.30;99.90
2729;DHT22;1372;47.956;7.830;2023-11-19T04:34:14;12.20;99.90
2729;DHT22;1372;47.956;7.830;2023-11-19T04:36:43;12.30;99.90
2729;DHT22;1372;47.956;7.830;2023-11-19T04:39:12;12.30;99.90
2729;DHT22;1372;47.956;7.830;2023-11-19T04:41:47;12.30;99.90
2729;DHT22;1372;47.956;7.830;2023-11-19T04:44:17;12.30;99.90
2729;DHT22;1372;47.956;7.830;2023-11-19T04:46:46;12.30;99.90
2729;DHT22;1372;47.956;7.830;2023-11-19T04:49:15;12.30;99.90
2729;DHT22;1372;47.956;7.830;2023-11-19T04:51:45;12.40;99.90
2729;DHT22;1372;47.956;7.830;2023-11-19T04:54:15;12.40;99.90
2729;DHT22;1372;47.956;7.830;2023-11-19T04:56:47;12.40;99.90
2729;DHT22;1372;47.956;7.830;2023-11-19T04:59:16;12.40;99.90
2729;DHT22;1372;47.956;7.830;2023-11-19T05:01:46;12.40;99.90
2729;DHT22;1372;47.956;7.830;2023-11-19T05:04:15;12.40;99.90
2729;DHT22;1372;47.956;7.830;2023-11-19T05:06:46;12.40;99.90
2729;DHT22;1372;47.956;7.830;2023-11-19T05:09:15;12.40;99.90
2729;DHT22;1372;47.956;7.830;2023-11-19T05:11:44;12.40;99.90
2729;DHT22;1372;47.956;7.830;2023-11-19T05:14:17;12.40;99.90
2729;DHT22;1372;47.956;7.830;2023-11-19T05:16:49;12.30;99.90
2729;DHT22;1372;47.956;7.830;2023-11-19T05:19:19;12.40;99.90
2729;DHT22;1372;47.956;7.830;2023-11-19T05:21:48;12.50;99.90
2729;DHT22;1372;47.956;7.830;2023-11-19T05:24:19;12.40;99.90
2729;DHT22;1372;47.956;7.830;2023-11-19T05:26:48;12.50;99.90
2729;DHT22;1372;47.956;7.830;2023-11-19T05:29:19;12.50;99.90
2729;DHT22;1372;47.956;7.830;2023-11-19T05:31:48;12.50;99.90
2729;DHT22;1372;47.956;7.830;2023-11-19T05:34:17;12.50;99.90
2729;DHT22;1372;47.956;7.830;2023-11-19T05:36:46;12.50;99.90
2729;DHT22;1372;47.956;7.830;2023-11-19T05:39:17;12.50;99.90
2729;DHT22;1372;47.956;7.830;2023-11-19T05:41:47;12.50;99.90
2729;DHT22;1372;47.956;7.830;2023-11-19T05:44:16;12.60;99.90
2729;DHT22;1372;47.956;7.830;2023-11-19T05:46:47;12.60;99.90
2729;DHT22;1372;47.956;7.830;2023-11-19T05:49:18;12.60;99.90
2729;DHT22;1372;47.956;7.830;2023-11-19T05:51:47;12.60;99.90
2729;DHT22;1372;47.956;7.830;2023-11-19T05:54:16;12.60;99.90
2729;DHT22;1372;47.956;7.830;2023-11-19T05:56:47;12.60;99.90
2729;DHT22;1372;47.956;7.830;2023-11-19T05:59:18;12.70;99.90
2729;DHT22;1372;47.956;7.830;2023-11-19T06:01:47;12.70;99.90
2729;DHT22;1372;47.956;7.830;2023-11-19T06:04:16;12.70;99.90
2729;DHT22;1372;47.956;7.830;2023-11-19T06:06:45;12.80;99.90
2729;DHT22;1372;47.956;7.830;2023-11-19T06:09:14;12.80;99.90
2729;DHT22;1372;47.956;7.830;2023-11-19T06:11:45;12.80;99.90
2729;DHT22;1372;47.956;7.830;2023-11-19T06:14:14;12.80;99.90
2729;DHT22;1372;47.956;7.830;2023-11-19T06:16:44;12.80;99.90
2729;DHT22;1372;47.956;7.830;2023-11-19T06:19:13;12.80;99.90
2729;DHT22;1372;47.956;7.830;2023-11-19T06:21:42;12.80;99.90
2729;DHT22;1372;47.956;7.830;2023-11-19T06:24:11;12.80;99.90
2729;DHT22;1372;47.956;7.830;2023-11-19T06:26:40;12.90;99.90
2729;DHT22;1372;47.956;7.830;2023-11-19T06:29:09;12.90;99.90
2729;DHT22;1372;47.956;7.830;2023-11-19T06:31:40;12.90;99.90
2729;DHT22;1372;47.956;7.830;2023-11-19T06:34:11;12.80;99.90
2729;DHT22;1372;47.956;7.830;2023-11-19T06:36:40;12.80;99.90
2729;DHT22;1372;47.956;7.830;2023-11-19T06:39:10;12.90;99.90
2729;DHT22;1372;47.956;7.830;2023-11-19T06:41:40;12.90;99.90
2729;DHT22;1372;47.956;7.830;2023-11-19T06:44:47;12.90;99.90
2729;DHT22;1372;47.956;7.830;2023-11-19T06:47:16;12.90;99.90
2729;DHT22;1372;47.956;7.830;2023-11-19T06:49:52;12.90;99.90
2729;DHT22;1372;47.956;7.830;2023-11-19T06:52:31;12.90;99.90
2729;DHT22;1372;47.956;7.830;2023-11-19T06:58:03;12.90;99.90
2729;DHT22;1372;47.956;7.830;2023-11-19T07:00:34;12.90;99.90
2729;DHT22;1372;47.956;7.830;2023-11-19T07:03:03;13.00;99.90
2729;DHT22;1372;47.956;7.830;2023-11-19T07:05:50;13.00;99.90
2729;DHT22;1372;47.956;7.830;2023-11-19T07:08:22;13.10;99.90
2729;DHT22;1372;47.956;7.830;2023-11-19T07:11:02;13.00;99.90
2729;DHT22;1372;47.956;7.830;2023-11-19T07:13:31;13.10;99.90
2729;DHT22;1372;47.956;7.830;2023-11-19T07:16:00;13.10;99.90
2729;DHT22;1372;47.956;7.830;2023-11-19T07:18:30;13.10;99.90
2729;DHT22;1372;47.956;7.830;2023-11-19T07:21:04;13.10;99.90
2729;DHT22;1372;47.956;7.830;2023-11-19T07:23:34;13.20;99.90
2729;DHT22;1372;47.956;7.830;2023-11-19T07:26:05;13.10;99.90
2729;DHT22;1372;47.956;7.830;2023-11-19T07:28:36;13.20;99.90
2729;DHT22;1372;47.956;7.830;2023-11-19T07:31:07;13.20;99.90
2729;DHT22;1372;47.956;7.830;2023-11-19T07:33:36;13.20;99.90
2729;DHT22;1372;47.956;7.830;2023-11-19T07:36:07;13.20;99.90
2729;DHT22;1372;47.956;7.830;2023-11-19T07:38:37;13.20;99.90
2729;DHT22;1372;47.956;7.830;2023-11-19T07:41:06;13.30;99.90
2729;DHT22;1372;47.956;7.830;2023-11-19T07:43:37;13.30;99.90
2729;DHT22;1372;47.956;7.830;2023-11-19T07:46:13;13.30;99.90
2729;DHT22;1372;47.956;7.830;2023-11-19T07:48:42;13.30;99.90
2729;DHT22;1372;47.956;7.830;2023-11-19T07:51:12;13.30;99.90
2729;DHT22;1372;47.956;7.830;2023-11-19T07:53:42;13.30;99.90
2729;DHT22;1372;47.956;7.830;2023-11-19T07:56:11;13.30;99.90
2729;DHT22;1372;47.956;7.830;2023-11-19T07:58:40;13.40;99.90
2729;DHT22;1372;47.956;7.830;2023-11-19T08:01:09;13.40;99.90
2729;DHT22;1372;47.956;7.830;2023-11-19T08:03:38;13.40;99.90
2729;DHT22;1372;47.956;7.830;2023-11-19T08:06:25;13.40;99.90
2729;DHT22;1372;47.956;7.830;2023-11-19T08:08:54;13.50;99.90
2729;DHT22;1372;47.956;7.830;2023-11-19T08:11:23;13.40;99.90
2729;DHT22;1372;47.956;7.830;2023-11-19T08:13:52;13.40;99.90
2729;DHT22;1372;47.956;7.830;2023-11-19T08:16:21;13.40;99.90
2729;DHT22;1372;47.956;7.830;2023-11-19T08:18:50;13.50;99.90
2729;DHT22;1372;47.956;7.830;2023-11-19T08:21:19;13.50;99.90
2729;DHT22;1372;47.956;7.830;2023-11-19T08:23:51;13.50;99.90
2729;DHT22;1372;47.956;7.830;2023-11-19T08:26:20;13.50;99.90
2729;DHT22;1372;47.956;7.830;2023-11-19T08:28:52;13.50;99.90
2729;DHT22;1372;47.956;7.830;2023-11-19T08:31:36;13.50;99.90
2729;DHT22;1372;47.956;7.830;2023-11-19T08:34:07;13.50;99.90
2729;DHT22;1372;47.956;7.830;2023-11-19T08:36:36;13.60;99.90
2729;DHT22;1372;47.956;7.830;2023-11-19T08:39:06;13.60;99.90
2729;DHT22;1372;47.956;7.830;2023-11-19T08:41:36;13.70;99.90
2729;DHT22;1372;47.956;7.830;2023-11-19T08:44:07;13.70;99.90
2729;DHT22;1372;47.956;7.830;2023-11-19T08:46:36;13.70;99.90
2729;DHT22;1372;47.956;7.830;2023-11-19T08:49:08;13.60;99.90
2729;DHT22;1372;47.956;7.830;2023-11-19T08:51:37;13.60;99.90
2729;DHT22;1372;47.956;7.830;2023-11-19T08:54:08;13.60;99.90
2729;DHT22;1372;47.956;7.830;2023-11-19T08:56:42;13.60;99.90
2729;DHT22;1372;47.956;7.830;2023-11-19T08:59:11;13.60;99.90
2729;DHT22;1372;47.956;7.830;2023-11-19T09:01:42;13.50;99.90
2729;DHT22;1372;47.956;7.830;2023-11-19T09:04:14;13.60;99.90
2729;DHT22;1372;47.956;7.830;2023-11-19T09:15:45;13.70;99.90
2729;DHT22;1372;47.956;7.830;2023-11-19T09:18:14;13.70;99.90
2729;DHT22;1372;47.956;7.830;2023-11-19T09:20:43;13.80;99.90
2729;DHT22;1372;47.956;7.830;2023-11-19T09:23:12;13.80;99.90
2729;DHT22;1372;47.956;7.830;2023-11-19T09:25:41;13.70;99.90
2729;DHT22;1372;47.956;7.830;2023-11-19T09:28:11;13.70;99.90
2729;DHT22;1372;47.956;7.830;2023-11-19T09:30:41;13.70;99.90
2729;DHT22;1372;47.956;7.830;2023-11-19T09:33:12;13.70;99.90
2729;DHT22;1372;47.956;7.830;2023-11-19T09:35:41;13.70;99.90
2729;DHT22;1372;47.956;7.830;2023-11-19T09:38:12;13.80;99.90
2729;DHT22;1372;47.956;7.830;2023-11-19T09:40:41;13.80;99.90
2729;DHT22;1372;47.956;7.830;2023-11-19T09:43:11;13.80;99.90
2729;DHT22;1372;47.956;7.830;2023-11-19T09:45:47;13.80;99.90
2729;DHT22;1372;47.956;7.830;2023-11-19T09:48:19;13.80;99.90
2729;DHT22;1372;47.956;7.830;2023-11-19T09:50:49;13.80;99.90
2729;DHT22;1372;47.956;7.830;2023-11-19T09:53:19;13.80;99.90
2729;DHT22;1372;47.956;7.830;2023-11-19T09:55:53;13.80;99.90
2729;DHT22;1372;47.956;7.830;2023-11-19T09:58:24;13.80;99.90
2729;DHT22;1372;47.956;7.830;2023-11-19T10:00:55;13.80;99.90
2729;DHT22;1372;47.956;7.830;2023-11-19T10:04:01;13.70;99.90
2729;DHT22;1372;47.956;7.830;2023-11-19T10:06:34;13.70;99.90
2729;DHT22;1372;47.956;7.830;2023-11-19T10:09:25;13.70;99.90
2729;DHT22;1372;47.956;7.830;2023-11-19T10:11:55;13.80;99.90
2729;DHT22;1372;47.956;7.830;2023-11-19T10:14:23;13.80;99.90
2729;DHT22;1372;47.956;7.830;2023-11-19T10:16:52;13.80;99.90
2729;DHT22;1372;47.956;7.830;2023-11-19T10:19:25;13.90;99.90
2729;DHT22;1372;47.956;7.830;2023-11-19T10:21:55;13.90;99.90
2729;DHT22;1372;47.956;7.830;2023-11-19T10:24:31;13.90;99.90
2729;DHT22;1372;47.956;7.830;2023-11-19T10:27:04;13.90;99.90
2729;DHT22;1372;47.956;7.830;2023-11-19T10:29:36;13.90;99.90
2729;DHT22;1372;47.956;7.830;2023-11-19T10:32:07;14.00;99.90
2729;DHT22;1372;47.956;7.830;2023-11-19T10:34:50;14.00;99.90
2729;DHT22;1372;47.956;7.830;2023-11-19T10:37:27;14.10;99.90
2729;DHT22;1372;47.956;7.830;2023-11-19T10:39:59;14.00;99.90
2729;DHT22;1372;47.956;7.830;2023-11-19T10:42:28;14.10;99.90
2729;DHT22;1372;47.956;7.830;2023-11-19T10:44:57;14.10;99.90
2729;DHT22;1372;47.956;7.830;2023-11-19T10:47:26;14.10;99.90
2729;DHT22;1372;47.956;7.830;2023-11-19T10:50:02;14.10;99.90
2729;DHT22;1372;47.956;7.830;2023-11-19T10:52:33;14.10;99.90
2729;DHT22;1372;47.956;7.830;2023-11-19T10:55:05;14.20;99.90
2729;DHT22;1372;47.956;7.830;2023-11-19T10:57:38;14.10;99.90
2729;DHT22;1372;47.956;7.830;2023-11-19T11:00:12;14.20;99.90
2729;DHT22;1372;47.956;7.830;2023-11-19T11:02:45;14.20;99.90
2729;DHT22;1372;47.956;7.830;2023-11-19T11:05:20;14.20;99.90
2729;DHT22;1372;47.956;7.830;2023-11-19T11:07:52;14.30;99.90
2729;DHT22;1372;47.956;7.830;2023-11-19T11:10:28;14.30;99.90
2729;DHT22;1372;47.956;7.830;2023-11-19T11:13:23;14.40;99.90
2729;DHT22;1372;47.956;7.830;2023-11-19T11:15:53;14.40;99.90
2729;DHT22;1372;47.956;7.830;2023-11-19T11:18:25;14.50;99.90
2729;DHT22;1372;47.956;7.830;2023-11-19T11:21:00;14.40;99.90
2729;DHT22;1372;47.956;7.830;2023-11-19T11:27:23;14.40;99.90
2729;DHT22;1372;47.956;7.830;2023-11-19T11:30:20;14.40;99.90
2729;DHT22;1372;47.956;7.830;2023-11-19T11:33:07;14.40;99.90
2729;DHT22;1372;47.956;7.830;2023-11-19T11:35:53;14.40;99.90
2729;DHT22;1372;47.956;7.830;2023-11-19T11:38:30;14.40;99.90
2729;DHT22;1372;47.956;7.830;2023-11-19T11:41:21;14.40;99.90
2729;DHT22;1372;47.956;7.830;2023-11-19T11:43:54;14.40;99.90
2729;DHT22;1372;47.956;7.830;2023-11-19T11:46:55;14.50;99.90
2729;DHT22;1372;47.956;7.830;2023-11-19T11:49:28;14.50;99.90
2729;DHT22;1372;47.956;7.830;2023-11-19T11:52:04;14.40;99.90
2729;DHT22;1372;47.956;7.830;2023-11-19T11:54:34;14.40;99.90
2729;DHT22;1372;47.956;7.830;2023-11-19T11:57:06;14.40;99.90
2729;DHT22;1372;47.956;7.830;2023-11-19T11:59:46;14.30;99.90
2729;DHT22;1372;47.956;7.830;2023-11-19T12:02:20;14.30;99.90
2729;DHT22;1372;47.956;7.830;2023-11-19T12:04:52;14.30;99.90
2729;DHT22;1372;47.956;7.830;2023-11-19T12:07:24;14.30;99.90
2729;DHT22;1372;47.956;7.830;2023-11-19T12:10:05;14.30;99.90
2729;DHT22;1372;47.956;7.830;2023-11-19T12:12:36;14.40;99.90
2729;DHT22;1372;47.956;7.830;2023-11-19T12:15:07;14.40;99.90
2729;DHT22;1372;47.956;7.830;2023-11-19T12:17:48;14.40;99.90
2729;DHT22;1372;47.956;7.830;2023-11-19T12:20:19;14.40;99.90
2729;DHT22;1372;47.956;7.830;2023-11-19T12:22:54;14.40;99.90
2729;DHT22;1372;47.956;7.830;2023-11-19T12:25:23;14.40;99.90
2729;DHT22;1372;47.956;7.830;2023-11-19T12:27:53;14.40;99.90
2729;DHT22;1372;47.956;7.830;2023-11-19T12:30:24;14.40;99.90
2729;DHT22;1372;47.956;7.830;2023-11-19T12:32:54;14.40;99.90
2729;DHT22;1372;47.956;7.830;2023-11-19T12:35:23;14.40;99.90
2729;DHT22;1372;47.956;7.830;2023-11-19T12:37:57;14.40;99.90
2729;DHT22;1372;47.956;7.830;2023-11-19T12:40:26;14.40;99.90
2729;DHT22;1372;47.956;7.830;2023-11-19T12:42:59;14.50;99.90
2729;DHT22;1372;47.956;7.830;2023-11-19T12:45:34;14.50;99.90
2729;DHT22;1372;47.956;7.830;2023-11-19T12:48:08;14.50;99.90
2729;DHT22;1372;47.956;7.830;2023-11-19T12:50:59;14.60;99.90
2729;DHT22;1372;47.956;7.830;2023-11-19T12:53:47;14.60;99.90
2729;DHT22;1372;47.956;7.830;2023-11-19T12:56:17;14.60;99.90
2729;DHT22;1372;47.956;7.830;2023-11-19T12:58:47;14.60;99.90
2729;DHT22;1372;47.956;7.830;2023-11-19T13:01:20;14.60;99.90
2729;DHT22;1372;47.956;7.830;2023-11-19T13:03:52;14.60;99.90
2729;DHT22;1372;47.956;7.830;2023-11-19T13:06:21;14.60;99.90
2729;DHT22;1372;47.956;7.830;2023-11-19T13:08:53;14.60;99.90
2729;DHT22;1372;47.956;7.830;2023-11-19T13:11:32;14.50;99.90
2729;DHT22;1372;47.956;7.830;2023-11-19T13:14:05;14.50;99.90
2729;DHT22;1372;47.956;7.830;2023-11-19T13:16:37;14.40;99.90
2729;DHT22;1372;47.956;7.830;2023-11-19T13:19:07;14.40;99.90
2729;DHT22;1372;47.956;7.830;2023-11-19T13:21:37;14.40;99.90
2729;DHT22;1372;47.956;7.830;2023-11-19T13:24:08;14.30;99.90
2729;DHT22;1372;47.956;7.830;2023-11-19T13:26:37;14.30;99.90
2729;DHT22;1372;47.956;7.830;2023-11-19T13:29:06;14.30;99.90
2729;DHT22;1372;47.956;7.830;2023-11-19T13:31:38;14.30;99.90
2729;DHT22;1372;47.956;7.830;2023-11-19T13:34:07;14.40;99.90
2729;DHT22;1372;47.956;7.830;2023-11-19T13:36:36;14.50;99.90
2729;DHT22;1372;47.956;7.830;2023-11-19T13:39:05;14.50;99.90
2729;DHT22;1372;47.956;7.830;2023-11-19T13:41:36;14.40;99.90
2729;DHT22;1372;47.956;7.830;2023-11-19T13:44:05;14.40;99.90
2729;DHT22;1372;47.956;7.830;2023-11-19T13:46:34;14.40;99.90
2729;DHT22;1372;47.956;7.830;2023-11-19T13:49:16;14.50;99.90
2729;DHT22;1372;47.956;7.830;2023-11-19T13:51:46;14.50;99.90
2729;DHT22;1372;47.956;7.830;2023-11-19T13:54:27;14.50;99.90
2729;DHT22;1372;47.956;7.830;2023-11-19T13:57:23;14.60;99.90
2729;DHT22;1372;47.956;7.830;2023-11-19T13:59:52;14.60;99.90
2729;DHT22;1372;47.956;7.830;2023-11-19T14:02:22;14.60;99.90
2729;DHT22;1372;47.956;7.830;2023-11-19T14:04:51;14.70;99.90
2729;DHT22;1372;47.956;7.830;2023-11-19T14:07:20;14.60;99.90
2729;DHT22;1372;47.956;7.830;2023-11-19T14:09:49;14.70;99.90
2729;DHT22;1372;47.956;7.830;2023-11-19T14:12:18;14.70;99.90
2729;DHT22;1372;47.956;7.830;2023-11-19T14:14:50;14.60;99.90
2729;DHT22;1372;47.956;7.830;2023-11-19T14:17:22;14.70;99.90
2729;DHT22;1372;47.956;7.830;2023-11-19T14:19:54;14.60;99.90
2729;DHT22;1372;47.956;7.830;2023-11-19T14:22:23;14.60;99.90
2729;DHT22;1372;47.956;7.830;2023-11-19T14:24:53;14.60;99.90
2729;DHT22;1372;47.956;7.830;2023-11-19T14:27:22;14.60;99.90
2729;DHT22;1372;47.956;7.830;2023-11-19T14:29:55;14.60;99.90
2729;DHT22;1372;47.956;7.830;2023-11-19T14:32:25;14.60;99.90
2729;DHT22;1372;47.956;7.830;2023-11-19T14:34:54;14.70;99.90
2729;DHT22;1372;47.956;7.830;2023-11-19T14:37:25;14.70;99.90
2729;DHT22;1372;47.956;7.830;2023-11-19T14:39:58;14.70;99.90
2729;DHT22;1372;47.956;7.830;2023-11-19T14:42:29;14.70;99.90
2729;DHT22;1372;47.956;7.830;2023-11-19T14:44:59;14.70;99.90
2729;DHT22;1372;47.956;7.830;2023-11-19T14:47:28;14.70;99.90
2729;DHT22;1372;47.956;7.830;2023-11-19T14:49:58;14.70;99.90
2729;DHT22;1372;47.956;7.830;2023-11-19T14:52:33;14.70;99.90
2729;DHT22;1372;47.956;7.830;2023-11-19T14:55:06;14.70;99.90
2729;DHT22;1372;47.956;7.830;2023-11-19T14:57:37;14.70;99.90
2729;DHT22;1372;47.956;7.830;2023-11-19T15:00:15;14.60;99.90
2729;DHT22;1372;47.956;7.830;2023-11-19T15:02:45;14.60;99.90
2729;DHT22;1372;47.956;7.830;2023-11-19T15:05:14;14.50;99.90
2729;DHT22;1372;47.956;7.830;2023-11-19T15:07:42;14.40;99.90
2729;DHT22;1372;47.956;7.830;2023-11-19T15:10:19;14.40;99.90
2729;DHT22;1372;47.956;7.830;2023-11-19T15:12:48;14.40;99.90
2729;DHT22;1372;47.956;7.830;2023-11-19T15:15:20;14.40;99.90
2729;DHT22;1372;47.956;7.830;2023-11-19T15:18:17;14.40;99.90
2729;DHT22;1372;47.956;7.830;2023-11-19T15:20:47;14.40;99.90
2729;DHT22;1372;47.956;7.830;2023-11-19T15:23:16;14.30;99.90
2729;DHT22;1372;47.956;7.830;2023-11-19T15:25:47;14.20;99.90
2729;DHT22;1372;47.956;7.830;2023-11-19T15:28:16;14.20;99.90
2729;DHT22;1372;47.956;7.830;2023-11-19T15:30:48;14.20;99.90
2729;DHT22;1372;47.956;7.830;2023-11-19T15:33:18;14.10;99.90
2729;DHT22;1372;47.956;7.830;2023-11-19T15:35:47;14.10;99.90
2729;DHT22;1372;47.956;7.830;2023-11-19T15:38:19;14.00;99.90
2729;DHT22;1372;47.956;7.830;2023-11-19T15:40:48;14.00;99.90
2729;DHT22;1372;47.956;7.830;2023-11-19T15:43:17;14.00;99.90
2729;DHT22;1372;47.956;7.830;2023-11-19T15:45:48;13.90;99.90
2729;DHT22;1372;47.956;7.830;2023-11-19T15:48:19;13.90;99.90
2729;DHT22;1372;47.956;7.830;2023-11-19T15:50:51;13.90;99.90
2729;DHT22;1372;47.956;7.830;2023-11-19T15:53:20;13.80;99.90
2729;DHT22;1372;47.956;7.830;2023-11-19T15:55:49;13.80;99.90
2729;DHT22;1372;47.956;7.830;2023-11-19T15:58:20;13.80;99.90
2729;DHT22;1372;47.956;7.830;2023-11-19T16:00:51;13.80;99.90
2729;DHT22;1372;47.956;7.830;2023-11-19T16:03:20;13.70;99.90
2729;DHT22;1372;47.956;7.830;2023-11-19T16:05:49;13.70;99.90
2729;DHT22;1372;47.956;7.830;2023-11-19T16:08:27;13.70;99.90
2729;DHT22;1372;47.956;7.830;2023-11-19T16:10:56;13.70;99.90
2729;DHT22;1372;47.956;7.830;2023-11-19T16:13:26;13.70;99.90
2729;DHT22;1372;47.956;7.830;2023-11-19T16:15:56;13.70;99.90
2729;DHT22;1372;47.956;7.830;2023-11-19T16:18:25;13.80;99.90
2729;DHT22;1372;47.956;7.830;2023-11-19T16:20:55;13.70;99.90
2729;DHT22;1372;47.956;7.830;2023-11-19T16:23:24;13.70;99.90
2729;DHT22;1372;47.956;7.830;2023-11-19T16:25:54;13.60;99.90
2729;DHT22;1372;47.956;7.830;2023-11-19T16:28:23;13.60;99.90
2729;DHT22;1372;47.956;7.830;2023-11-19T16:30:57;13.60;99.90
2729;DHT22;1372;47.956;7.830;2023-11-19T16:33:26;13.70;99.90
2729;DHT22;1372;47.956;7.830;2023-11-19T16:35:57;13.80;99.90
2729;DHT22;1372;47.956;7.830;2023-11-19T16:38:26;13.80;99.90
2729;DHT22;1372;47.956;7.830;2023-11-19T16:40:59;13.80;99.90
2729;DHT22;1372;47.956;7.830;2023-11-19T16:43:28;13.80;99.90
2729;DHT22;1372;47.956;7.830;2023-11-19T16:45:59;13.80;99.90